sensor_id;sensor_type;location;lat;lon;timestamp;pressure;altitude;pressure_sealevel;temperature;humidity
12676;BME280;63820;65.654;21.944;2023-04-19T00:01:00;103497.16;;;1.27;100.00
12676;BME280;63820;65.654;21.944;2023-04-19T00:03:45;103514.03;;;1.22;100.00
12676;BME280;63820;65.654;21.944;2023-04-19T00:06:29;103505.72;;;1.09;100.00
12676;BME280;63820;65.654;21.944;2023-04-19T00:09:14;103499.84;;;1.11;100.00
12676;BME280;63820;65.654;21.944;2023-04-19T00:11:58;103505.38;;;1.20;100.00
12676;BME280;63820;65.654;21.944;2023-04-19T00:14:42;103499.97;;;1.14;100.00
12676;BME280;63820;65.654;21.944;2023-04-19T00:17:26;103507.09;;;1.01;100.00
12676;BME280;63820;65.654;21.944;2023-04-19T00:20:11;103501.97;;;1.01;100.00
12676;BME280;63820;65.654;21.944;2023-04-19T00:22:56;103495.81;;;0.97;100.00
12676;BME280;63820;65.654;21.944;2023-04-19T00:25:42;103498.59;;;1.02;100.00
12676;BME280;63820;65.654;21.944;2023-04-19T00:28:26;103493.09;;;1.13;100.00
12676;BME280;63820;65.654;21.944;2023-04-19T00:31:10;103491.28;;;0.91;100.00
12676;BME280;63820;65.654;21.944;2023-04-19T00:33:55;103491.28;;;0.91;100.00
12676;BME280;63820;65.654;21.944;2023-04-19T00:36:39;103497.44;;;0.95;100.00
12676;BME280;63820;65.654;21.944;2023-04-19T00:39:23;103492.34;;;0.77;100.00
12676;BME280;63820;65.654;21.944;2023-04-19T00:42:07;103489.88;;;0.61;100.00
12676;BME280;63820;65.654;21.944;2023-04-19T00:44:52;103493.09;;;0.57;100.00
12676;BME280;63820;65.654;21.944;2023-04-19T00:47:36;103492.09;;;0.53;100.00
12676;BME280;63820;65.654;21.944;2023-04-19T00:50:21;103493.41;;;0.45;100.00
12676;BME280;63820;65.654;21.944;2023-04-19T00:53:06;103491.50;;;0.41;100.00
12676;BME280;63820;65.654;21.944;2023-04-19T00:55:51;103479.50;;;0.40;100.00
12676;BME280;63820;65.654;21.944;2023-04-19T00:58:37;103483.16;;;0.45;100.00
12676;BME280;63820;65.654;21.944;2023-04-19T01:01:22;103479.94;;;0.49;100.00
12676;BME280;63820;65.654;21.944;2023-04-19T01:04:06;103484.41;;;0.53;100.00
12676;BME280;63820;65.654;21.944;2023-04-19T01:06:51;103478.84;;;0.44;100.00
12676;BME280;63820;65.654;21.944;2023-04-19T01:09:39;103478.41;;;0.53;100.00
12676;BME280;63820;65.654;21.944;2023-04-19T01:12:24;103477.81;;;0.41;100.00
12676;BME280;63820;65.654;21.944;2023-04-19T01:15:08;103466.56;;;0.19;100.00
12676;BME280;63820;65.654;21.944;2023-04-19T01:17:52;103472.06;;;0.09;100.00
12676;BME280;63820;65.654;21.944;2023-04-19T01:20:39;103471.03;;;0.06;100.00
12676;BME280;63820;65.654;21.944;2023-04-19T01:23:23;103467.66;;;0.07;100.00
12676;BME280;63820;65.654;21.944;2023-04-19T01:26:08;103460.78;;;0.06;100.00
12676;BME280;63820;65.654;21.944;2023-04-19T01:28:52;103458.88;;;0.19;100.00
12676;BME280;63820;65.654;21.944;2023-04-19T01:31:36;103459.84;;;0.21;100.00
12676;BME280;63820;65.654;21.944;2023-04-19T01:34:20;103451.06;;;0.16;100.00
12676;BME280;63820;65.654;21.944;2023-04-19T01:37:05;103454.88;;;0.24;100.00
12676;BME280;63820;65.654;21.944;2023-04-19T01:39:49;103456.69;;;0.09;100.00
12676;BME280;63820;65.654;21.944;2023-04-19T01:42:33;103453.06;;;-0.14;100.00
12676;BME280;63820;65.654;21.944;2023-04-19T01:45:18;103454.34;;;-0.22;100.00
12676;BME280;63820;65.654;21.944;2023-04-19T01:48:02;103444.00;;;-0.41;100.00
12676;BME280;63820;65.654;21.944;2023-04-19T01:50:49;103447.72;;;-0.52;100.00
12676;BME280;63820;65.654;21.944;2023-04-19T01:53:33;103447.56;;;-0.55;100.00
12676;BME280;63820;65.654;21.944;2023-04-19T01:56:19;103425.50;;;-0.53;100.00
12676;BME280;63820;65.654;21.944;2023-04-19T01:59:03;103435.09;;;-0.49;100.00
12676;BME280;63820;65.654;21.944;2023-04-19T02:01:48;103437.34;;;-0.55;100.00
12676;BME280;63820;65.654;21.944;2023-04-19T02:04:33;103432.22;;;-0.55;100.00
12676;BME280;63820;65.654;21.944;2023-04-19T02:07:17;103432.94;;;-0.58;100.00
12676;BME280;63820;65.654;21.944;2023-04-19T02:10:01;103425.50;;;-0.53;100.00
12676;BME280;63820;65.654;21.944;2023-04-19T02:12:45;103423.41;;;-0.44;100.00
12676;BME280;63820;65.654;21.944;2023-04-19T02:15:29;103427.44;;;-0.31;100.00
12676;BME280;63820;65.654;21.944;2023-04-19T02:18:13;103428.63;;;-0.25;100.00
12676;BME280;63820;65.654;21.944;2023-04-19T02:20:58;103427.75;;;-0.08;100.00
12676;BME280;63820;65.654;21.944;2023-04-19T02:23:42;103421.44;;;0.04;100.00
12676;BME280;63820;65.654;21.944;2023-04-19T02:26:26;103424.00;;;0.04;100.00
12676;BME280;63820;65.654;21.944;2023-04-19T02:29:10;103427.44;;;0.04;100.00
12676;BME280;63820;65.654;21.944;2023-04-19T02:31:54;103414.84;;;0.26;100.00
12676;BME280;63820;65.654;21.944;2023-04-19T02:34:38;103411.03;;;0.36;100.00
12676;BME280;63820;65.654;21.944;2023-04-19T02:37:22;103392.97;;;0.33;100.00
12676;BME280;63820;65.654;21.944;2023-04-19T02:40:06;103385.16;;;0.30;100.00
12676;BME280;63820;65.654;21.944;2023-04-19T02:42:51;103368.91;;;0.29;100.00
12676;BME280;63820;65.654;21.944;2023-04-19T02:45:35;103385.88;;;0.27;100.00
12676;BME280;63820;65.654;21.944;2023-04-19T02:48:20;103394.38;;;0.26;100.00
12676;BME280;63820;65.654;21.944;2023-04-19T02:51:04;103398.69;;;0.27;100.00
12676;BME280;63820;65.654;21.944;2023-04-19T02:53:49;103398.91;;;0.32;100.00
12676;BME280;63820;65.654;21.944;2023-04-19T02:56:33;103403.22;;;0.33;100.00
12676;BME280;63820;65.654;21.944;2023-04-19T02:59:17;103395.59;;;0.35;100.00
12676;BME280;63820;65.654;21.944;2023-04-19T03:02:01;103405.25;;;0.40;100.00
12676;BME280;63820;65.654;21.944;2023-04-19T03:04:45;103381.59;;;0.46;100.00
12676;BME280;63820;65.654;21.944;2023-04-19T03:07:30;103356.34;;;0.53;100.00
12676;BME280;63820;65.654;21.944;2023-04-19T03:10:14;103347.03;;;0.55;100.00
12676;BME280;63820;65.654;21.944;2023-04-19T03:12:58;103361.38;;;0.52;100.00
12676;BME280;63820;65.654;21.944;2023-04-19T03:15:42;103380.19;;;0.52;100.00
12676;BME280;63820;65.654;21.944;2023-04-19T03:18:26;103369.47;;;0.61;100.00
12676;BME280;63820;65.654;21.944;2023-04-19T03:21:10;103380.19;;;0.72;100.00
12676;BME280;63820;65.654;21.944;2023-04-19T03:23:54;103366.91;;;0.80;100.00
12676;BME280;63820;65.654;21.944;2023-04-19T03:26:39;103368.31;;;0.93;100.00
12676;BME280;63820;65.654;21.944;2023-04-19T03:29:23;103364.50;;;1.04;100.00
12676;BME280;63820;65.654;21.944;2023-04-19T03:32:07;103355.59;;;1.15;100.00
12676;BME280;63820;65.654;21.944;2023-04-19T03:34:51;103357.84;;;1.28;100.00
12676;BME280;63820;65.654;21.944;2023-04-19T03:37:35;103357.41;;;1.39;100.00
12676;BME280;63820;65.654;21.944;2023-04-19T03:40:19;103353.59;;;1.50;100.00
12676;BME280;63820;65.654;21.944;2023-04-19T03:43:03;103357.22;;;1.55;100.00
12676;BME280;63820;65.654;21.944;2023-04-19T03:45:47;103360.03;;;1.61;100.00
12676;BME280;63820;65.654;21.944;2023-04-19T03:48:31;103358.53;;;1.66;100.00
12676;BME280;63820;65.654;21.944;2023-04-19T03:51:16;103361.41;;;1.74;100.00
12676;BME280;63820;65.654;21.944;2023-04-19T03:54:00;103355.75;;;1.82;100.00
12676;BME280;63820;65.654;21.944;2023-04-19T03:56:44;103356.00;;;1.88;100.00
12676;BME280;63820;65.654;21.944;2023-04-19T03:59:28;103356.38;;;1.98;100.00
12676;BME280;63820;65.654;21.944;2023-04-19T04:02:12;103342.94;;;2.05;100.00
12676;BME280;63820;65.654;21.944;2023-04-19T04:04:56;103339.94;;;2.16;100.00
12676;BME280;63820;65.654;21.944;2023-04-19T04:07:40;103334.38;;;2.28;100.00
12676;BME280;63820;65.654;21.944;2023-04-19T04:10:25;103343.25;;;2.36;100.00
12676;BME280;63820;65.654;21.944;2023-04-19T04:13:09;103343.00;;;2.52;100.00
12676;BME280;63820;65.654;21.944;2023-04-19T04:15:53;103336.47;;;2.62;100.00
12676;BME280;63820;65.654;21.944;2023-04-19T04:18:38;103330.84;;;2.72;100.00
12676;BME280;63820;65.654;21.944;2023-04-19T04:21:22;103333.59;;;2.77;100.00
12676;BME280;63820;65.654;21.944;2023-04-19T04:24:07;103336.53;;;2.87;100.00
12676;BME280;63820;65.654;21.944;2023-04-19T04:26:52;103342.75;;;2.94;100.00
12676;BME280;63820;65.654;21.944;2023-04-19T04:29:37;103348.22;;;3.03;100.00
12676;BME280;63820;65.654;21.944;2023-04-19T04:32:21;103350.25;;;3.13;100.00
12676;BME280;63820;65.654;21.944;2023-04-19T04:35:07;103346.41;;;3.26;100.00
12676;BME280;63820;65.654;21.944;2023-04-19T04:37:52;103344.38;;;3.43;100.00
12676;BME280;63820;65.654;21.944;2023-04-19T04:40:36;103339.09;;;3.65;100.00
12676;BME280;63820;65.654;21.944;2023-04-19T04:43:22;103342.97;;;3.79;100.00
12676;BME280;63820;65.654;21.944;2023-04-19T04:46:06;103338.06;;;3.87;100.00
12676;BME280;63820;65.654;21.944;2023-04-19T04:48:51;103329.00;;;4.00;100.00
12676;BME280;63820;65.654;21.944;2023-04-19T04:51:36;103320.03;;;4.15;100.00
12676;BME280;63820;65.654;21.944;2023-04-19T04:54:20;103328.81;;;4.23;100.00
12676;BME280;63820;65.654;21.944;2023-04-19T04:57:04;103325.00;;;4.39;100.00
12676;BME280;63820;65.654;21.944;2023-04-19T04:59:49;103323.50;;;4.47;100.00
12676;BME280;63820;65.654;21.944;2023-04-19T05:02:32;103321.53;;;4.69;100.00
12676;BME280;63820;65.654;21.944;2023-04-19T05:05:16;103325.75;;;4.98;100.00
12676;BME280;63820;65.654;21.944;2023-04-19T05:08:00;103325.28;;;5.13;100.00
12676;BME280;63820;65.654;21.944;2023-04-19T05:10:44;103323.06;;;5.30;100.00
12676;BME280;63820;65.654;21.944;2023-04-19T05:13:28;103325.22;;;5.47;100.00
12676;BME280;63820;65.654;21.944;2023-04-19T05:16:12;103318.78;;;5.66;100.00
12676;BME280;63820;65.654;21.944;2023-04-19T05:18:56;103317.19;;;5.71;100.00
12676;BME280;63820;65.654;21.944;2023-04-19T05:21:40;103313.28;;;5.88;100.00
12676;BME280;63820;65.654;21.944;2023-04-19T05:24:24;103303.31;;;6.04;100.00
12676;BME280;63820;65.654;21.944;2023-04-19T05:27:09;103306.03;;;6.11;100.00
12676;BME280;63820;65.654;21.944;2023-04-19T05:29:53;103301.06;;;6.20;100.00
12676;BME280;63820;65.654;21.944;2023-04-19T05:32:37;103305.78;;;6.41;100.00
12676;BME280;63820;65.654;21.944;2023-04-19T05:35:21;103296.34;;;6.45;100.00
12676;BME280;63820;65.654;21.944;2023-04-19T05:38:05;103295.34;;;6.37;100.00
12676;BME280;63820;65.654;21.944;2023-04-19T05:40:49;103305.50;;;6.28;100.00
12676;BME280;63820;65.654;21.944;2023-04-19T05:43:33;103308.09;;;6.28;100.00
12676;BME280;63820;65.654;21.944;2023-04-19T05:46:17;103315.94;;;6.32;100.00
12676;BME280;63820;65.654;21.944;2023-04-19T05:49:01;103310.03;;;6.39;99.74
12676;BME280;63820;65.654;21.944;2023-04-19T05:51:45;103302.53;;;6.51;97.55
12676;BME280;63820;65.654;21.944;2023-04-19T05:54:29;103303.78;;;6.72;94.53
12676;BME280;63820;65.654;21.944;2023-04-19T05:57:17;103303.31;;;6.94;92.74
12676;BME280;63820;65.654;21.944;2023-04-19T06:00:01;103308.03;;;7.16;91.37
12676;BME280;63820;65.654;21.944;2023-04-19T06:02:45;103301.34;;;7.32;87.77
12676;BME280;63820;65.654;21.944;2023-04-19T06:05:29;103297.94;;;7.36;85.65
12676;BME280;63820;65.654;21.944;2023-04-19T06:08:13;103306.84;;;7.53;81.13
12676;BME280;63820;65.654;21.944;2023-04-19T06:10:59;103302.19;;;7.90;80.86
12676;BME280;63820;65.654;21.944;2023-04-19T06:13:43;103297.81;;;8.54;79.55
12676;BME280;63820;65.654;21.944;2023-04-19T06:16:28;103294.06;;;9.15;75.06
12676;BME280;63820;65.654;21.944;2023-04-19T06:19:13;103285.81;;;9.77;71.63
12676;BME280;63820;65.654;21.944;2023-04-19T06:21:57;103294.69;;;10.16;66.77
12676;BME280;63820;65.654;21.944;2023-04-19T06:24:43;103291.34;;;10.63;65.43
12676;BME280;63820;65.654;21.944;2023-04-19T06:27:28;103287.94;;;10.93;62.42
12676;BME280;63820;65.654;21.944;2023-04-19T06:30:12;103286.19;;;11.21;60.90
12676;BME280;63820;65.654;21.944;2023-04-19T06:32:56;103286.06;;;11.94;60.02
12676;BME280;63820;65.654;21.944;2023-04-19T06:35:40;103279.78;;;12.39;58.55
12676;BME280;63820;65.654;21.944;2023-04-19T06:38:24;103276.50;;;11.87;56.40
12676;BME280;63820;65.654;21.944;2023-04-19T06:41:09;103263.47;;;11.84;57.91
12676;BME280;63820;65.654;21.944;2023-04-19T06:43:53;103270.47;;;11.54;57.93
12676;BME280;63820;65.654;21.944;2023-04-19T06:46:38;103266.81;;;12.19;56.48
12676;BME280;63820;65.654;21.944;2023-04-19T06:49:22;103271.69;;;13.70;53.87
12676;BME280;63820;65.654;21.944;2023-04-19T06:52:06;103264.00;;;15.81;47.34
12676;BME280;63820;65.654;21.944;2023-04-19T06:54:50;103264.72;;;16.68;44.74
12676;BME280;63820;65.654;21.944;2023-04-19T06:57:35;103270.59;;;16.42;44.75
12676;BME280;63820;65.654;21.944;2023-04-19T07:00:19;103262.88;;;16.34;43.61
12676;BME280;63820;65.654;21.944;2023-04-19T07:03:03;103262.56;;;17.19;42.62
12676;BME280;63820;65.654;21.944;2023-04-19T07:05:48;103267.13;;;17.13;42.65
12676;BME280;63820;65.654;21.944;2023-04-19T07:08:32;103281.97;;;16.80;43.25
12676;BME280;63820;65.654;21.944;2023-04-19T07:11:16;103283.34;;;16.96;42.85
12676;BME280;63820;65.654;21.944;2023-04-19T07:14:01;103276.97;;;16.69;42.78
12676;BME280;63820;65.654;21.944;2023-04-19T07:16:46;103278.09;;;16.59;42.90
12676;BME280;63820;65.654;21.944;2023-04-19T07:19:30;103275.78;;;16.82;42.84
12676;BME280;63820;65.654;21.944;2023-04-19T07:22:15;103271.00;;;16.62;42.34
12676;BME280;63820;65.654;21.944;2023-04-19T07:24:59;103261.47;;;16.18;42.96
12676;BME280;63820;65.654;21.944;2023-04-19T07:27:44;103263.53;;;15.61;44.31
12676;BME280;63820;65.654;21.944;2023-04-19T07:30:28;103268.81;;;15.12;44.62
12676;BME280;63820;65.654;21.944;2023-04-19T07:33:12;103269.56;;;14.66;46.34
12676;BME280;63820;65.654;21.944;2023-04-19T07:35:57;103260.28;;;13.74;47.26
12676;BME280;63820;65.654;21.944;2023-04-19T07:38:41;103271.25;;;13.29;48.94
12676;BME280;63820;65.654;21.944;2023-04-19T07:41:25;103265.50;;;13.78;48.19
12676;BME280;63820;65.654;21.944;2023-04-19T07:44:09;103274.38;;;14.33;47.29
12676;BME280;63820;65.654;21.944;2023-04-19T07:46:55;103276.88;;;14.46;47.06
12676;BME280;63820;65.654;21.944;2023-04-19T07:49:39;103271.53;;;14.52;47.65
12676;BME280;63820;65.654;21.944;2023-04-19T07:52:24;103278.97;;;14.16;48.15
12676;BME280;63820;65.654;21.944;2023-04-19T07:55:08;103260.56;;;14.22;47.86
12676;BME280;63820;65.654;21.944;2023-04-19T07:57:52;103265.03;;;14.14;48.44
12676;BME280;63820;65.654;21.944;2023-04-19T08:00:36;103258.41;;;13.86;48.28
12676;BME280;63820;65.654;21.944;2023-04-19T08:03:20;103257.69;;;13.73;49.31
12676;BME280;63820;65.654;21.944;2023-04-19T08:06:05;103253.25;;;13.80;49.94
12676;BME280;63820;65.654;21.944;2023-04-19T08:08:52;103255.75;;;13.90;49.74
12676;BME280;63820;65.654;21.944;2023-04-19T08:11:36;103264.78;;;14.32;49.43
12676;BME280;63820;65.654;21.944;2023-04-19T08:14:21;103262.66;;;14.59;49.05
12676;BME280;63820;65.654;21.944;2023-04-19T08:17:05;103256.84;;;14.95;47.87
12676;BME280;63820;65.654;21.944;2023-04-19T08:19:49;103252.25;;;15.08;47.83
12676;BME280;63820;65.654;21.944;2023-04-19T08:22:33;103245.09;;;15.64;47.36
12676;BME280;63820;65.654;21.944;2023-04-19T08:25:17;103240.59;;;15.70;46.10
12676;BME280;63820;65.654;21.944;2023-04-19T08:28:01;103238.34;;;15.04;46.70
12676;BME280;63820;65.654;21.944;2023-04-19T08:30:45;103227.16;;;16.26;45.27
12676;BME280;63820;65.654;21.944;2023-04-19T08:33:29;103224.88;;;16.49;44.78
12676;BME280;63820;65.654;21.944;2023-04-19T08:36:13;103220.16;;;17.92;41.24
12676;BME280;63820;65.654;21.944;2023-04-19T08:38:59;103218.47;;;19.73;39.54
12676;BME280;63820;65.654;21.944;2023-04-19T08:41:43;103212.72;;;18.87;38.70
12676;BME280;63820;65.654;21.944;2023-04-19T08:44:30;103221.56;;;19.11;38.92
12676;BME280;63820;65.654;21.944;2023-04-19T08:47:15;103221.84;;;20.21;37.48
12676;BME280;63820;65.654;21.944;2023-04-19T08:50:00;103220.00;;;20.23;37.21
12676;BME280;63820;65.654;21.944;2023-04-19T08:52:45;103211.22;;;19.05;38.88
12676;BME280;63820;65.654;21.944;2023-04-19T08:55:30;103213.59;;;18.87;39.81
12676;BME280;63820;65.654;21.944;2023-04-19T08:58:14;103212.44;;;17.86;41.07
12676;BME280;63820;65.654;21.944;2023-04-19T09:00:59;103195.84;;;16.88;42.06
12676;BME280;63820;65.654;21.944;2023-04-19T09:03:44;103196.88;;;17.47;41.76
12676;BME280;63820;65.654;21.944;2023-04-19T09:06:38;103203.31;;;17.37;41.29
12676;BME280;63820;65.654;21.944;2023-04-19T09:09:26;103201.66;;;17.66;41.25
12676;BME280;63820;65.654;21.944;2023-04-19T09:12:15;103199.28;;;18.14;40.73
12676;BME280;63820;65.654;21.944;2023-04-19T09:15:02;103190.34;;;17.90;41.09
12676;BME280;63820;65.654;21.944;2023-04-19T09:18:03;103170.31;;;17.84;41.05
12676;BME280;63820;65.654;21.944;2023-04-19T09:20:48;103172.06;;;18.13;40.24
12676;BME280;63820;65.654;21.944;2023-04-19T09:23:34;103154.03;;;17.72;40.77
12676;BME280;63820;65.654;21.944;2023-04-19T09:26:29;103170.25;;;18.94;40.05
12676;BME280;63820;65.654;21.944;2023-04-19T09:29:15;103172.72;;;18.99;39.14
12676;BME280;63820;65.654;21.944;2023-04-19T09:31:59;103178.78;;;19.96;38.44
12676;BME280;63820;65.654;21.944;2023-04-19T09:34:57;103180.88;;;20.32;37.62
12676;BME280;63820;65.654;21.944;2023-04-19T09:37:42;103186.22;;;20.08;38.23
12676;BME280;63820;65.654;21.944;2023-04-19T09:40:26;103188.56;;;20.38;38.05
12676;BME280;63820;65.654;21.944;2023-04-19T09:43:11;103183.06;;;21.05;37.44
12676;BME280;63820;65.654;21.944;2023-04-19T09:45:55;103180.13;;;21.51;36.41
12676;BME280;63820;65.654;21.944;2023-04-19T09:48:39;103181.22;;;21.27;37.02
12676;BME280;63820;65.654;21.944;2023-04-19T09:51:39;103156.34;;;20.28;38.11
12676;BME280;63820;65.654;21.944;2023-04-19T09:54:24;103166.50;;;19.73;39.49
12676;BME280;63820;65.654;21.944;2023-04-19T09:57:11;103153.88;;;19.80;40.02
12676;BME280;63820;65.654;21.944;2023-04-19T09:59:57;103154.31;;;19.69;39.93
12676;BME280;63820;65.654;21.944;2023-04-19T10:02:42;103156.38;;;19.83;39.79
12676;BME280;63820;65.654;21.944;2023-04-19T10:05:28;103155.53;;;19.61;40.79
12676;BME280;63820;65.654;21.944;2023-04-19T10:08:13;103159.03;;;19.83;40.41
12676;BME280;63820;65.654;21.944;2023-04-19T10:10:58;103150.63;;;19.95;39.99
12676;BME280;63820;65.654;21.944;2023-04-19T10:13:44;103151.31;;;20.00;40.09
12676;BME280;63820;65.654;21.944;2023-04-19T10:16:31;103158.44;;;19.98;40.10
12676;BME280;63820;65.654;21.944;2023-04-19T10:19:18;103157.63;;;19.96;40.17
12676;BME280;63820;65.654;21.944;2023-04-19T10:22:03;103146.91;;;19.55;41.35
12676;BME280;63820;65.654;21.944;2023-04-19T10:25:10;103143.78;;;19.21;42.25
12676;BME280;63820;65.654;21.944;2023-04-19T10:27:56;103140.72;;;19.78;41.42
12676;BME280;63820;65.654;21.944;2023-04-19T10:30:59;103144.59;;;19.70;41.58
12676;BME280;63820;65.654;21.944;2023-04-19T10:33:47;103147.13;;;18.76;43.07
12676;BME280;63820;65.654;21.944;2023-04-19T10:36:31;103143.16;;;18.89;42.58
12676;BME280;63820;65.654;21.944;2023-04-19T10:39:38;103144.91;;;18.11;43.64
12676;BME280;63820;65.654;21.944;2023-04-19T10:42:22;103133.63;;;17.78;44.24
12676;BME280;63820;65.654;21.944;2023-04-19T10:45:32;103135.22;;;17.54;44.71
12676;BME280;63820;65.654;21.944;2023-04-19T10:51:17;103126.19;;;17.03;45.96
12676;BME280;63820;65.654;21.944;2023-04-19T10:54:54;103128.25;;;16.91;46.12
12676;BME280;63820;65.654;21.944;2023-04-19T10:57:14;103120.75;;;16.76;46.68
12676;BME280;63820;65.654;21.944;2023-04-19T11:00:18;103118.00;;;16.48;47.29
12676;BME280;63820;65.654;21.944;2023-04-19T11:09:38;103114.19;;;17.23;46.51
12676;BME280;63820;65.654;21.944;2023-04-19T11:12:24;103108.16;;;16.89;46.97
12676;BME280;63820;65.654;21.944;2023-04-19T11:15:08;103105.41;;;16.93;47.12
12676;BME280;63820;65.654;21.944;2023-04-19T11:17:53;103114.72;;;17.36;46.67
12676;BME280;63820;65.654;21.944;2023-04-19T11:20:37;103108.44;;;17.40;46.65
12676;BME280;63820;65.654;21.944;2023-04-19T11:23:21;103110.09;;;17.44;46.55
12676;BME280;63820;65.654;21.944;2023-04-19T11:26:14;103108.91;;;17.54;46.34
12676;BME280;63820;65.654;21.944;2023-04-19T11:28:59;103112.25;;;17.59;46.77
12676;BME280;63820;65.654;21.944;2023-04-19T11:31:44;103098.53;;;17.78;46.47
12676;BME280;63820;65.654;21.944;2023-04-19T11:34:34;103106.66;;;17.98;46.36
12676;BME280;63820;65.654;21.944;2023-04-19T11:37:18;103104.13;;;17.95;46.48
12676;BME280;63820;65.654;21.944;2023-04-19T11:40:04;103086.94;;;17.83;46.86
12676;BME280;63820;65.654;21.944;2023-04-19T11:42:56;103076.41;;;17.26;47.60
12676;BME280;63820;65.654;21.944;2023-04-19T11:45:42;103074.56;;;17.57;47.40
12676;BME280;63820;65.654;21.944;2023-04-19T11:48:27;103082.25;;;17.65;47.25
12676;BME280;63820;65.654;21.944;2023-04-19T11:51:14;103079.13;;;17.80;46.94
12676;BME280;63820;65.654;21.944;2023-04-19T11:53:58;103084.81;;;17.94;46.77
12676;BME280;63820;65.654;21.944;2023-04-19T11:57:25;103074.13;;;17.99;46.74
12676;BME280;63820;65.654;21.944;2023-04-19T12:00:10;103070.66;;;18.25;47.02
12676;BME280;63820;65.654;21.944;2023-04-19T12:02:55;103072.53;;;19.43;44.70
12676;BME280;63820;65.654;21.944;2023-04-19T12:05:59;103066.31;;;20.09;43.67
12676;BME280;63820;65.654;21.944;2023-04-19T12:08:48;103077.03;;;20.48;42.56
12676;BME280;63820;65.654;21.944;2023-04-19T12:11:44;103073.31;;;20.73;41.96
12676;BME280;63820;65.654;21.944;2023-04-19T12:14:29;103073.59;;;20.85;41.35
12676;BME280;63820;65.654;21.944;2023-04-19T12:17:14;103068.00;;;21.12;41.28
12676;BME280;63820;65.654;21.944;2023-04-19T12:19:58;103060.97;;;21.11;41.81
12676;BME280;63820;65.654;21.944;2023-04-19T12:22:43;103060.97;;;19.69;43.80
12676;BME280;63820;65.654;21.944;2023-04-19T12:25:31;103057.41;;;19.70;43.57
12676;BME280;63820;65.654;21.944;2023-04-19T12:28:16;103060.59;;;19.56;43.97
12676;BME280;63820;65.654;21.944;2023-04-19T12:31:00;103060.59;;;19.56;44.05
12676;BME280;63820;65.654;21.944;2023-04-19T12:33:44;103063.34;;;19.06;44.72
12676;BME280;63820;65.654;21.944;2023-04-19T12:36:28;103057.72;;;18.17;46.77
12676;BME280;63820;65.654;21.944;2023-04-19T12:39:13;103053.81;;;16.88;48.93
12676;BME280;63820;65.654;21.944;2023-04-19T12:41:57;103044.91;;;17.23;49.32
12676;BME280;63820;65.654;21.944;2023-04-19T12:44:41;103040.31;;;18.38;48.22
12676;BME280;63820;65.654;21.944;2023-04-19T12:47:25;103040.97;;;19.83;44.78
12676;BME280;63820;65.654;21.944;2023-04-19T12:50:12;103046.38;;;20.22;43.11
12676;BME280;63820;65.654;21.944;2023-04-19T12:52:56;103035.13;;;20.17;43.21
12676;BME280;63820;65.654;21.944;2023-04-19T12:55:40;103038.13;;;20.71;43.25
12676;BME280;63820;65.654;21.944;2023-04-19T12:58:24;103050.41;;;21.48;42.36
12676;BME280;63820;65.654;21.944;2023-04-19T13:01:11;103029.53;;;22.30;40.91
12676;BME280;63820;65.654;21.944;2023-04-19T13:03:55;103030.75;;;22.91;40.27
12676;BME280;63820;65.654;21.944;2023-04-19T13:06:39;103028.53;;;22.83;40.63
12676;BME280;63820;65.654;21.944;2023-04-19T13:09:23;103032.22;;;23.75;38.71
12676;BME280;63820;65.654;21.944;2023-04-19T13:12:07;103030.63;;;23.57;38.76
12676;BME280;63820;65.654;21.944;2023-04-19T13:14:52;103021.25;;;23.02;39.33
12676;BME280;63820;65.654;21.944;2023-04-19T13:17:36;103018.38;;;22.41;39.79
12676;BME280;63820;65.654;21.944;2023-04-19T13:20:22;103017.81;;;21.82;41.11
12676;BME280;63820;65.654;21.944;2023-04-19T13:23:06;103012.75;;;21.78;41.54
12676;BME280;63820;65.654;21.944;2023-04-19T13:25:50;103017.88;;;22.50;40.71
12676;BME280;63820;65.654;21.944;2023-04-19T13:28:34;103015.59;;;23.24;39.65
12676;BME280;63820;65.654;21.944;2023-04-19T13:31:18;103010.78;;;23.46;39.78
12676;BME280;63820;65.654;21.944;2023-04-19T13:34:02;103012.44;;;23.65;38.46
12676;BME280;63820;65.654;21.944;2023-04-19T13:36:47;103009.59;;;23.68;38.22
12676;BME280;63820;65.654;21.944;2023-04-19T13:39:31;102999.50;;;23.11;39.04
12676;BME280;63820;65.654;21.944;2023-04-19T13:42:17;102990.38;;;21.83;40.47
12676;BME280;63820;65.654;21.944;2023-04-19T13:45:02;102997.13;;;20.98;42.17
12676;BME280;63820;65.654;21.944;2023-04-19T13:47:46;102996.16;;;20.43;42.85
12676;BME280;63820;65.654;21.944;2023-04-19T13:50:30;102985.34;;;19.86;43.99
12676;BME280;63820;65.654;21.944;2023-04-19T13:53:14;102993.91;;;19.49;44.89
12676;BME280;63820;65.654;21.944;2023-04-19T13:55:58;102984.50;;;19.42;45.42
12676;BME280;63820;65.654;21.944;2023-04-19T13:58:42;102986.47;;;19.81;44.75
12676;BME280;63820;65.654;21.944;2023-04-19T14:01:26;102982.19;;;19.99;44.51
12676;BME280;63820;65.654;21.944;2023-04-19T14:04:11;102986.47;;;20.21;44.36
12676;BME280;63820;65.654;21.944;2023-04-19T14:06:55;102984.81;;;19.99;45.32
12676;BME280;63820;65.654;21.944;2023-04-19T14:09:39;102984.34;;;19.89;44.89
12676;BME280;63820;65.654;21.944;2023-04-19T14:12:25;102985.38;;;19.43;45.49
12676;BME280;63820;65.654;21.944;2023-04-19T14:15:10;102977.50;;;19.19;45.95
12676;BME280;63820;65.654;21.944;2023-04-19T14:17:54;102976.75;;;18.46;47.28
12676;BME280;63820;65.654;21.944;2023-04-19T14:20:38;102979.44;;;18.69;46.47
12676;BME280;63820;65.654;21.944;2023-04-19T14:23:22;102975.63;;;18.76;46.16